To NAV CANADA Home Page Login to a new session Search on AWWS site Disclaimer Vers la page française équivalente Tips FAQ What's new on the site To the Forecasts and Observations / NOTAM section To "File a Flight Plan" website Publications and other links Update of the User's profile FIC Telephone Numbers My Weather Data Folder Route Weather Data Regional Weather Data Local Weather Data To the Forecasts and Observations / NOTAM section
Request Generated 10/19/2018 at 15:41:16 UTC . Weather information available at that time is displayed.

METAR/TAF

If you find any discrepancies between the coded METAR/TAF and the plain language METAR/TAF please use the coded METAR/TAF. LWIS bulletins are not decoded in plain language.

VANCOUVER INTL/BC    (show WxCam)

METAR CYVR 191500Z 00000KT 20SM MIFG OVC250 06/06 A3028 RMK CS8 CONTRAILS VIS N 0SM SLP254=
METAR
LOCATION
CYVR - VANCOUVER INTL/BC
DATE - TIME
19 OCTOBER 2018 - 1500 UTC
WIND
CALM
VISIBILITY
20 STAT.  MILES
RUNWAY VISUAL RANGE
WEATHER
SHALLOW FOG
CLOUDINESS
OVERCAST 25000  FT
TEMP / DEWPOINT
6 C / 6 C
ALTIMETER
30.28 IN HG
RECENT WEATHER
WIND SHEAR

METAR CYVR 191400Z 11002KT 15SM MIFG FEW005 SCT250 07/07 A3027 RMK ST1CS3 ST TR LP250=
METAR
LOCATION
CYVR - VANCOUVER INTL/BC
DATE - TIME
19 OCTOBER 2018 - 1400 UTC
WIND
110 TRUE @ 2  KNOTS
VISIBILITY
15 STAT.  MILES
RUNWAY VISUAL RANGE
WEATHER
SHALLOW FOG
CLOUDINESS
FEW CLOUDS (1/8 - 2/8) 500  FT
SCATTERED CLOUDS (3/8 - 4/8) 25000  FT
TEMP / DEWPOINT
7 C / 7 C
ALTIMETER
30.27 IN HG
RECENT WEATHER
WIND SHEAR

METAR CYVR 191300Z 09003KT 12SM MIFG FEW005 FEW250 07/07 A3026 RMK ST1CI1 SLP24
METAR
LOCATION
CYVR - VANCOUVER INTL/BC
DATE - TIME
19 OCTOBER 2018 - 1300 UTC
WIND
90 TRUE @ 3  KNOTS
VISIBILITY
12 STAT.  MILES
RUNWAY VISUAL RANGE
WEATHER
SHALLOW FOG
CLOUDINESS
FEW CLOUDS (1/8 - 2/8) 500  FT
FEW CLOUDS (1/8 - 2/8) 25000  FT
TEMP / DEWPOINT
7 C / 7 C
ALTIMETER
30.26 IN HG
RECENT WEATHER
WIND SHEAR

TAF CYVR 191441Z 1915/2018 VRB03KT P6SM SCT250 PROB30 1915/1917 1/2SM FG BKN002 BECMG 1917/1919 26005KT FM191900 26007KT P6SM FEW250 FM200900 VRB03KT P6SM FEW250 PROB30 2009/2016 1/2SM FG BKN002 RMK NXT FCST BY 191800Z=
TAF
LOCATION

CYVR - VANCOUVER INTL/BC
VALIDITY [UTC]
19 OCT - 1441 to
20 OCT - 1800
 
TIMES
[UTC]
WIND
[DEGREES TRUE]
VISIBILITY
[STAT. MILES]
WEATHER
CLOUDINESS
[FEET AGL]
 
19 OCT - 1500 to
19 OCT - 1900
VARIABLE @ 3 KNOTS
6+
NIL
25000 SCATTERED
30% PROBABILITY
19 OCT - 1500 to
19 OCT - 1700
 
1/2
FOG
200 BROKEN
BECOMING
19 OCT - 1700 to
19 OCT - 1900
260 @ 5 KNOTS
 
 
 
 
19 OCT - 1900 to
20 OCT - 0900
260 @ 7 KNOTS
6+
NIL
25000 FEW
 
20 OCT - 0900 to
20 OCT - 1800
VARIABLE @ 3 KNOTS
6+
NIL
25000 FEW
30% PROBABILITY
20 OCT - 0900 to
20 OCT - 1600
 
1/2
FOG
200 BROKEN
REMARKS
THE NEXT FORECAST WILL BE ISSUED BY 1800 UTC ON DAY 19


Your time UTC time
Weather data provided by Environment Canada and NAV CANADA